Time;durP1;ratioP1;P1;durP2;ratioP2;P2;SDS_P1;SDS_P2;PMS_P1;PMS_P2;Temp;Humidity;BMP_temperature;BMP_pressure;BME280_temperature;BME280_humidity;BME280_pressure;Samples;Min_cycle;Max_cycle;Signal;HPM_P1;HPM_P2
2023/12/06 00:02:40;;;;;;;;;;;;;;;;;;136886;1272;22507;-81
2023/12/06 00:05:41;;;;;;;;;;;;;;;;;;136899;1272;23138;-81
2023/12/06 00:08:42;;;;;;;;;;;;;;;;;;137486;1272;22557;-81
2023/12/06 00:11:43;;;;;;;;;;;;;;;;;;137097;1272;22502;-80
2023/12/06 00:14:44;;;;;;;;;;;;;;;;;;136854;1272;22662;-80
2023/12/06 00:17:45;;;;;;;;;;;;;;;;;;137267;1272;22524;-81
2023/12/06 00:20:46;;;;;;;;;;;;;;;;;;137286;1272;22506;-81
2023/12/06 00:23:47;;;;;;;;;;;;;;;;;;137005;1272;23116;-81
2023/12/06 00:26:49;;;;;;;;;;;;;;;;;;137058;1272;22529;-81
2023/12/06 00:29:51;;;;;;;;;;;;;;;;;;137507;1272;22526;-81
2023/12/06 00:32:52;;;;;;;;;;;;;;;;;;136923;1272;22504;-81
2023/12/06 00:35:53;;;;;;;;;;;;;;;;;;137019;1272;22552;-81
2023/12/06 00:38:54;;;;;;;;;;;;;;;;;;137510;1272;22559;-81
2023/12/06 00:41:56;;;;;;;;;;;;;;;;;;136978;1272;22544;-81
2023/12/06 00:44:57;;;;;;;;;;;;;;;;;;136914;1272;22538;-80
2023/12/06 00:47:58;;;;;;;;;;;;;;;;;;137367;1272;25295;-81
2023/12/06 00:51:01;;;;;;;;;;;;;;;;;;137204;1272;22519;-81
2023/12/06 00:54:02;;;;;;;;;;;;;;;;;;136925;1272;22595;-81
2023/12/06 00:57:03;;;;;;;;;;;;;;;;;;137156;1272;22535;-81
2023/12/06 01:00:06;;;;;;;;;;;;;;;;;;137397;1272;22496;-81
2023/12/06 01:03:07;;;;;;;;;;;;;;;;;;136953;1272;22850;-81
2023/12/06 01:06:08;;;;;;;;;;;;;;;;;;136992;1272;22558;-80
2023/12/06 01:09:09;;;;;;;;;;;;;;;;;;137566;1272;22498;-81
2023/12/06 01:12:10;;;;;;;;;;;;;;;;;;137045;1272;22504;-80
2023/12/06 01:15:11;;;;;;;;;;;;;;;;;;136976;1272;22599;-80
2023/12/06 01:18:12;;;;;;;;;;;;;;;;;;137590;1272;22495;-80
2023/12/06 01:21:13;;;;;;;;;;;;;;;;;;137018;1272;22974;-79
2023/12/06 01:24:15;;;;;;;;;;;;;;;;;;136848;1265;22549;-79
2023/12/06 01:27:23;;;;;;;;;;;;;;;;;;137397;1272;25287;-79
2023/12/06 01:30:25;;;;;;;;;;;;;;;;;;137135;1272;22883;-80
2023/12/06 01:33:28;;;;;;;;;;;;;;;;;;136861;1272;22960;-80
2023/12/06 01:36:30;;;;;;;;;;;;;;;;;;136968;1272;23003;-79
2023/12/06 01:39:31;;;;;;;;;;;;;;;;;;137504;1272;22502;-79
2023/12/06 01:42:32;;;;;;;;;;;;;;;;;;136945;1272;22535;-80
2023/12/06 01:45:33;;;;;;;;;;;;;;;;;;137169;1272;22516;-80
2023/12/06 01:48:34;;;;;;;;;;;;;;;;;;137539;1272;22581;-80
2023/12/06 01:51:35;;;;;;;;;;;;;;;;;;137145;1272;22498;-81
2023/12/06 01:54:36;;;;;;;;;;;;;;;;;;136781;1272;22971;-80
2023/12/06 01:57:37;;;;;;;;;;;;;;;;;;137412;1272;22504;-80
2023/12/06 02:00:38;;;;;;;;;;;;;;;;;;137193;1272;22524;-81
2023/12/06 02:03:40;;;;;;;;;;;;;;;;;;136943;1272;22851;-81
2023/12/06 02:06:41;;;;;;;;;;;;;;;;;;137165;1272;22538;-82
2023/12/06 02:09:42;;;;;;;;;;;;;;;;;;137383;1272;22524;-82
2023/12/06 02:12:43;;;;;;;;;;;;;;;;;;136950;1272;22513;-79
2023/12/06 02:15:44;;;;;;;;;;;;;;;;;;136928;1272;22533;-80
2023/12/06 02:18:46;;;;;;;;;;;;;;;;;;137610;1272;22488;-80
2023/12/06 02:21:47;;;;;;;;;;;;;;;;;;136871;1272;22530;-81
2023/12/06 02:24:48;;;;;;;;;;;;;;;;;;136950;1272;22505;-81
2023/12/06 02:27:49;;;;;;;;;;;;;;;;;;137380;1272;22536;-81
2023/12/06 02:30:50;;;;;;;;;;;;;;;;;;137020;1272;22958;-80
2023/12/06 02:33:51;;;;;;;;;;;;;;;;;;136886;1272;22541;-80
2023/12/06 02:36:52;;;;;;;;;;;;;;;;;;137373;1272;23043;-80
2023/12/06 02:39:53;;;;;;;;;;;;;;;;;;137197;1272;22521;-80
2023/12/06 02:42:54;;;;;;;;;;;;;;;;;;136885;1272;22920;-80
2023/12/06 02:45:55;;;;;;;;;;;;;;;;;;137115;1272;22525;-82
2023/12/06 02:48:56;;;;;;;;;;;;;;;;;;137424;1272;22850;-82
2023/12/06 02:51:58;;;;;;;;;;;;;;;;;;136900;1272;22511;-80
2023/12/06 02:54:59;;;;;;;;;;;;;;;;;;136848;1272;22726;-81
2023/12/06 02:58:00;;;;;;;;;;;;;;;;;;137498;1270;22527;-78
2023/12/06 03:01:01;;;;;;;;;;;;;;;;;;136885;1272;22546;-79
2023/12/06 03:04:02;;;;;;;;;;;;;;;;;;136978;1272;22530;-79
2023/12/06 03:07:03;;;;;;;;;;;;;;;;;;137488;1272;22516;-79
2023/12/06 03:10:04;;;;;;;;;;;;;;;;;;136777;1272;22965;-79
2023/12/06 03:13:05;;;;;;;;;;;;;;;;;;136796;1269;23138;-79
2023/12/06 03:16:06;;;;;;;;;;;;;;;;;;137370;1272;22534;-80
2023/12/06 03:19:07;;;;;;;;;;;;;;;;;;137167;1272;22542;-80
2023/12/06 03:22:09;;;;;;;;;;;;;;;;;;136906;1260;22850;-81
2023/12/06 03:25:10;;;;;;;;;;;;;;;;;;137164;1272;22470;-82
2023/12/06 03:28:12;;;;;;;;;;;;;;;;;;137371;1272;22501;-81
2023/12/06 03:31:13;;;;;;;;;;;;;;;;;;136934;1272;23368;-83
2023/12/06 03:34:14;;;;;;;;;;;;;;;;;;137014;1272;22569;-81
2023/12/06 03:37:15;;;;;;;;;;;;;;;;;;137610;1272;22519;-81
2023/12/06 03:40:19;;;;;;;;;;;;;;;;;;136890;1272;22563;-81
2023/12/06 03:43:20;;;;;;;;;;;;;;;;;;136977;1272;22518;-80
2023/12/06 03:46:21;;;;;;;;;;;;;;;;;;137424;1272;22527;-80
2023/12/06 03:49:22;;;;;;;;;;;;;;;;;;136881;1272;22528;-79
2023/12/06 03:52:23;;;;;;;;;;;;;;;;;;136957;1272;22504;-79
2023/12/06 03:55:25;;;;;;;;;;;;;;;;;;136941;1272;22562;-80
2023/12/06 03:58:26;;;;;;;;;;;;;;;;;;137411;1272;22522;-79
2023/12/06 04:01:27;;;;;;;;;;;;;;;;;;137113;1272;22505;-79
2023/12/06 04:04:29;;;;;;;;;;;;;;;;;;137132;1272;22529;-79
2023/12/06 04:07:30;;;;;;;;;;;;;;;;;;137550;1272;22512;-79
2023/12/06 04:10:31;;;;;;;;;;;;;;;;;;136909;1272;22499;-79
2023/12/06 04:13:32;;;;;;;;;;;;;;;;;;136923;1272;23026;-80
2023/12/06 04:16:33;;;;;;;;;;;;;;;;;;137642;1272;22521;-80
2023/12/06 04:19:34;;;;;;;;;;;;;;;;;;136856;1272;22559;-78
2023/12/06 04:22:35;;;;;;;;;;;;;;;;;;136952;1272;22861;-80
2023/12/06 04:25:36;;;;;;;;;;;;;;;;;;137539;1272;22506;-80
2023/12/06 04:28:38;;;;;;;;;;;;;;;;;;137108;1272;22489;-80
2023/12/06 04:31:39;;;;;;;;;;;;;;;;;;137047;1272;22956;-80
2023/12/06 04:34:40;;;;;;;;;;;;;;;;;;137310;1272;22525;-79
2023/12/06 04:37:41;;;;;;;;;;;;;;;;;;137351;1272;22841;-80
2023/12/06 04:40:42;;;;;;;;;;;;;;;;;;136925;1272;23154;-78
2023/12/06 04:43:43;;;;;;;;;;;;;;;;;;136936;1257;22525;-79
2023/12/06 04:46:44;;;;;;;;;;;;;;;;;;137423;1272;132276;-79
2023/12/06 04:49:45;;;;;;;;;;;;;;;;;;137610;1272;22343;-80
2023/12/06 04:52:46;;;;;;;;;;;;;;;;;;137600;1272;23180;-79
2023/12/06 04:55:47;;;;;;;;;;;;;;;;;;137598;1272;22344;-78
2023/12/06 04:58:48;;;;;;;;;;;;;;;;;;137576;1272;22343;-79
2023/12/06 05:01:49;;;;;;;;;;;;;;;;;;137603;1272;22321;-81
2023/12/06 05:04:51;;;;;;;;;;;;;;;;;;137650;1272;22323;-80
2023/12/06 05:07:52;;;;;;;;;;;;;;;;;;137635;1272;22694;-80
2023/12/06 05:10:53;;;;;;;;;;;;;;;;;;137617;1272;23306;-82
2023/12/06 05:13:54;;;;;;;;;;;;;;;;;;137573;1272;22744;-82
2023/12/06 05:16:55;;;;;;;;;;;;;;;;;;137576;1272;22280;-81
2023/12/06 05:19:57;;;;;;;;;;;;;;;;;;137610;1272;22319;-81
2023/12/06 05:22:58;;;;;;;;;;;;;;;;;;137550;1272;22977;-81
2023/12/06 05:25:59;;;;;;;;;;;;;;;;;;137578;1272;22329;-80
2023/12/06 05:29:00;;;;;;;;;;;;;;;;;;137621;1272;22322;-80
2023/12/06 05:32:01;;;;;;;;;;;;;;;;;;137332;1272;22558;-82
2023/12/06 05:35:03;;;;;;;;;;;;;;;;;;137604;1261;22315;-79
2023/12/06 05:38:04;;;;;;;;;;;;;;;;;;137626;1272;22416;-79
2023/12/06 05:41:05;;;;;;;;;;;;;;;;;;137597;1272;22397;-80
2023/12/06 05:44:06;;;;;;;;;;;;;;;;;;137588;1272;22415;-80
2023/12/06 05:47:07;;;;;;;;;;;;;;;;;;137659;1272;22719;-81
2023/12/06 05:50:10;;;;;;;;;;;;;;;;;;137624;1272;22310;-79
2023/12/06 05:53:11;;;;;;;;;;;;;;;;;;137636;1272;22366;-81
2023/12/06 05:56:12;;;;;;;;;;;;;;;;;;137616;1272;22349;-80
2023/12/06 05:59:14;;;;;;;;;;;;;;;;;;136872;1272;22938;-80
2023/12/06 06:02:15;;;;;;;;;;;;;;;;;;137394;1258;22523;-79
2023/12/06 06:05:18;;;;;;;;;;;;;;;;;;137130;1272;22485;-80
2023/12/06 06:08:19;;;;;;;;;;;;;;;;;;137643;1270;22312;-80
2023/12/06 06:11:20;;;;;;;;;;;;;;;;;;137668;1272;22836;-81
2023/12/06 06:14:21;;;;;;;;;;;;;;;;;;137638;1272;22252;-81
2023/12/06 06:17:22;;;;;;;;;;;;;;;;;;137642;1268;22282;-81
2023/12/06 06:20:23;;;;;;;;;;;;;;;;;;137623;1272;22326;-81
2023/12/06 06:23:24;;;;;;;;;;;;;;;;;;137624;1272;22389;-81
2023/12/06 06:26:25;;;;;;;;;;;;;;;;;;137672;1272;22380;-82
2023/12/06 06:29:27;;;;;;;;;;;;;;;;;;137608;1272;22695;-81
2023/12/06 06:32:29;;;;;;;;;;;;;;;;;;137629;1265;22268;-82
2023/12/06 06:35:31;;;;;;;;;;;;;;;;;;137645;1272;22337;-81
2023/12/06 06:38:32;;;;;;;;;;;;;;;;;;137528;1272;22976;-81
2023/12/06 06:41:33;;;;;;;;;;;;;;;;;;137632;1257;22280;-81
2023/12/06 06:44:34;;;;;;;;;;;;;;;;;;137548;1272;22720;-81
2023/12/06 06:47:36;;;;;;;;;;;;;;;;;;137588;1272;22356;-80
2023/12/06 06:50:37;;;;;;;;;;;;;;;;;;137597;1272;22834;-80
2023/12/06 06:53:38;;;;;;;;;;;;;;;;;;137555;1267;22514;-81
2023/12/06 06:56:39;;;;;;;;;;;;;;;;;;137563;1272;22339;-81
2023/12/06 06:59:40;;;;;;;;;;;;;;;;;;137608;1272;22337;-81
2023/12/06 07:02:42;;;;;;;;;;;;;;;;;;137611;1272;22303;-81
2023/12/06 07:05:43;;;;;;;;;;;;;;;;;;137630;1272;22272;-81
2023/12/06 07:08:44;;;;;;;;;;;;;;;;;;137324;1272;22499;-81
2023/12/06 07:11:45;;;;;;;;;;;;;;;;;;137586;1267;22482;-81
2023/12/06 07:14:46;;;;;;;;;;;;;;;;;;137630;1272;22441;-80
2023/12/06 07:17:47;;;;;;;;;;;;;;;;;;137636;1272;22337;-81
2023/12/06 07:20:49;;;;;;;;;;;;;;;;;;137623;1272;22568;-82
2023/12/06 07:23:50;;;;;;;;;;;;;;;;;;137491;1272;22492;-81
2023/12/06 07:26:51;;;;;;;;;;;;;;;;;;137627;1272;22433;-80
2023/12/06 07:29:53;;;;;;;;;;;;;;;;;;137620;1272;22320;-82
2023/12/06 07:32:54;;;;;;;;;;;;;;;;;;137642;1272;22369;-81
2023/12/06 07:35:55;;;;;;;;;;;;;;;;;;137589;1272;22332;-80
2023/12/06 07:38:56;;;;;;;;;;;;;;;;;;137618;1272;22358;-82
2023/12/06 07:41:57;;;;;;;;;;;;;;;;;;137602;1272;22323;-82
2023/12/06 07:44:58;;;;;;;;;;;;;;;;;;137571;1272;22492;-81
2023/12/06 07:47:59;;;;;;;;;;;;;;;;;;137651;1272;22284;-82
2023/12/06 07:51:00;;;;;;;;;;;;;;;;;;137659;1272;22417;-81
2023/12/06 07:54:01;;;;;;;;;;;;;;;;;;137609;1272;22325;-82
2023/12/06 07:57:03;;;;;;;;;;;;;;;;;;137571;1272;22257;-81
2023/12/06 08:00:05;;;;;;;;;;;;;;;;;;137385;1272;22577;-80
2023/12/06 08:03:08;;;;;;;;;;;;;;;;;;137352;1272;22564;-81
2023/12/06 08:06:09;;;;;;;;;;;;;;;;;;137162;1272;22955;-81
2023/12/06 08:09:12;;;;;;;;;;;;;;;;;;137683;1272;22297;-80
2023/12/06 08:12:13;;;;;;;;;;;;;;;;;;137679;1267;22313;-80
2023/12/06 08:15:15;;;;;;;;;;;;;;;;;;137685;1272;22455;-80
2023/12/06 08:18:16;;;;;;;;;;;;;;;;;;137657;1272;22356;-80
2023/12/06 08:21:17;;;;;;;;;;;;;;;;;;137615;1272;22375;-80
2023/12/06 08:24:18;;;;;;;;;;;;;;;;;;137567;1260;22257;-80
2023/12/06 08:27:20;;;;;;;;;;;;;;;;;;137623;1272;22336;-81
2023/12/06 08:30:22;;;;;;;;;;;;;;;;;;137603;1272;22779;-81
2023/12/06 08:33:23;;;;;;;;;;;;;;;;;;137575;1272;22340;-81
2023/12/06 08:36:24;;;;;;;;;;;;;;;;;;137683;1272;22408;-80
2023/12/06 08:39:25;;;;;;;;;;;;;;;;;;137601;1272;23133;-80
2023/12/06 08:42:26;;;;;;;;;;;;;;;;;;137636;1272;22917;-81
2023/12/06 08:45:27;;;;;;;;;;;;;;;;;;137657;1272;22341;-80
2023/12/06 08:48:29;;;;;;;;;;;;;;;;;;137623;1272;22342;-81
2023/12/06 08:51:33;;;;;;;;;;;;;;;;;;137637;1272;22407;-83
2023/12/06 08:54:35;;;;;;;;;;;;;;;;;;137651;1272;22331;-82
2023/12/06 08:57:36;;;;;;;;;;;;;;;;;;137610;1272;22307;-81
2023/12/06 09:00:37;;;;;;;;;;;;;;;;;;137603;1272;22273;-80
2023/12/06 09:03:38;;;;;;;;;;;;;;;;;;137632;1272;22316;-83
2023/12/06 09:06:40;;;;;;;;;;;;;;;;;;137273;1265;22569;-81
2023/12/06 09:09:41;;;;;;;;;;;;;;;;;;137424;1272;23299;-81
2023/12/06 09:12:42;;;;;;;;;;;;;;;;;;137353;1272;22986;-81
2023/12/06 09:15:43;;;;;;;;;;;;;;;;;;137603;1272;22309;-81
2023/12/06 09:18:44;;;;;;;;;;;;;;;;;;137620;1272;22789;-81
2023/12/06 09:21:46;;;;;;;;;;;;;;;;;;137628;1272;22412;-80
2023/12/06 09:24:47;;;;;;;;;;;;;;;;;;137602;1268;22937;-81
2023/12/06 09:27:50;;;;;;;;;;;;;;;;;;137621;1272;22329;-84
2023/12/06 09:30:51;;;;;;;;;;;;;;;;;;137612;1272;22354;-81
2023/12/06 09:33:52;;;;;;;;;;;;;;;;;;137646;1272;22340;-82
2023/12/06 09:36:53;;;;;;;;;;;;;;;;;;137645;1272;22324;-81
2023/12/06 09:39:54;;;;;;;;;;;;;;;;;;137623;1272;22290;-83
2023/12/06 09:42:56;;;;;;;;;;;;;;;;;;137640;1272;22990;-81
2023/12/06 09:45:57;;;;;;;;;;;;;;;;;;137627;1272;22389;-82
2023/12/06 09:48:58;;;;;;;;;;;;;;;;;;137616;1272;22331;-82
2023/12/06 09:51:59;;;;;;;;;;;;;;;;;;137670;1272;22842;-81
2023/12/06 09:55:00;;;;;;;;;;;;;;;;;;137656;1272;22273;-81
2023/12/06 09:58:01;;;;;;;;;;;;;;;;;;137660;1272;23180;-84
2023/12/06 10:01:02;;;;;;;;;;;;;;;;;;137648;1272;22329;-85
2023/12/06 10:04:04;;;;;;;;;;;;;;;;;;137434;1272;22511;-85
2023/12/06 10:07:05;;;;;;;;;;;;;;;;;;137675;1272;22255;-82
2023/12/06 10:10:06;;;;;;;;;;;;;;;;;;137628;1272;22855;-80
2023/12/06 10:13:08;;;;;;;;;;;;;;;;;;137692;1272;22325;-84
2023/12/06 10:16:09;;;;;;;;;;;;;;;;;;137261;1272;22594;-84
2023/12/06 10:19:10;;;;;;;;;;;;;;;;;;137588;1272;22533;-83
2023/12/06 10:22:11;;;;;;;;;;;;;;;;;;137231;1272;22559;-82
2023/12/06 10:25:12;;;;;;;;;;;;;;;;;;137399;1272;24305;-85
2023/12/06 10:28:13;;;;;;;;;;;;;;;;;;137675;1272;22448;-83
2023/12/06 10:31:14;;;;;;;;;;;;;;;;;;137654;1272;22293;-82
2023/12/06 10:34:16;;;;;;;;;;;;;;;;;;137606;1272;22287;-84
2023/12/06 10:37:17;;;;;;;;;;;;;;;;;;137616;1265;22280;-82
2023/12/06 10:40:23;;;;;;;;;;;;;;;;;;137654;1265;22308;-82
2023/12/06 10:43:24;;;;;;;;;;;;;;;;;;137635;1272;22774;-82
2023/12/06 10:46:26;;;;;;;;;;;;;;;;;;137358;1261;22478;-82
2023/12/06 10:49:27;;;;;;;;;;;;;;;;;;137648;1272;22920;-83
2023/12/06 10:52:28;;;;;;;;;;;;;;;;;;137643;1266;22392;-81
2023/12/06 10:55:30;;;;;;;;;;;;;;;;;;137594;1272;22323;-83
2023/12/06 10:58:31;;;;;;;;;;;;;;;;;;137578;1270;22543;-81
2023/12/06 11:01:32;;;;;;;;;;;;;;;;;;137599;1272;22356;-81
2023/12/06 11:04:33;;;;;;;;;;;;;;;;;;137629;1272;22337;-81
2023/12/06 11:07:34;;;;;;;;;;;;;;;;;;137558;1272;23218;-82
2023/12/06 11:10:36;;;;;;;;;;;;;;;;;;137579;1272;22402;-85
2023/12/06 11:13:37;;;;;;;;;;;;;;;;;;137606;1272;22344;-80
2023/12/06 11:16:38;;;;;;;;;;;;;;;;;;137583;1272;22780;-81
2023/12/06 11:19:40;;;;;;;;;;;;;;;;;;137581;1272;22319;-81
2023/12/06 11:22:42;;;;;;;;;;;;;;;;;;137593;1272;22392;-81
2023/12/06 11:25:43;;;;;;;;;;;;;;;;;;137582;1272;23089;-81
2023/12/06 11:28:44;;;;;;;;;;;;;;;;;;137580;1272;22333;-80
2023/12/06 11:31:45;;;;;;;;;;;;;;;;;;137575;1272;22734;-81
2023/12/06 11:34:49;;;;;;;;;;;;;;;;;;137576;1272;22316;-81
2023/12/06 11:37:50;;;;;;;;;;;;;;;;;;137558;1272;22321;-81
2023/12/06 11:40:52;;;;;;;;;;;;;;;;;;137580;1272;22727;-81
2023/12/06 11:43:54;;;;;;;;;;;;;;;;;;137584;1272;22319;-81
2023/12/06 11:46:55;;;;;;;;;;;;;;;;;;137574;1272;22327;-84
2023/12/06 11:49:57;;;;;;;;;;;;;;;;;;137628;1272;22339;-81
2023/12/06 11:52:58;;;;;;;;;;;;;;;;;;137370;1272;22541;-80
2023/12/06 11:55:59;;;;;;;;;;;;;;;;;;137653;1272;22680;-81
2023/12/06 11:59:02;;;;;;;;;;;;;;;;;;137643;1272;22343;-81
2023/12/06 12:02:03;;;;;;;;;;;;;;;;;;137652;1272;22663;-82
2023/12/06 12:05:05;;;;;;;;;;;;;;;;;;137639;1272;22358;-81
2023/12/06 12:08:07;;;;;;;;;;;;;;;;;;137388;1272;22946;-83
2023/12/06 12:11:08;;;;;;;;;;;;;;;;;;137665;1260;22270;-80
2023/12/06 12:14:09;;;;;;;;;;;;;;;;;;137466;1272;22546;-86
2023/12/06 12:17:10;;;;;;;;;;;;;;;;;;137408;1272;22505;-80
2023/12/06 12:20:12;;;;;;;;;;;;;;;;;;137629;1272;22771;-80
2023/12/06 12:23:13;;;;;;;;;;;;;;;;;;137239;1272;22601;-81
2023/12/06 12:26:14;;;;;;;;;;;;;;;;;;137550;1272;22530;-81
2023/12/06 12:29:15;;;;;;;;;;;;;;;;;;136871;1272;22503;-82
2023/12/06 12:32:17;;;;;;;;;;;;;;;;;;137392;1272;22537;-81
2023/12/06 12:35:20;;;;;;;;;;;;;;;;;;137463;1272;22489;-80
2023/12/06 12:38:21;;;;;;;;;;;;;;;;;;137685;1268;22282;-80
2023/12/06 12:41:22;;;;;;;;;;;;;;;;;;137655;1272;22333;-80
2023/12/06 12:44:24;;;;;;;;;;;;;;;;;;137581;1272;22667;-81
2023/12/06 12:47:28;;;;;;;;;;;;;;;;;;137606;1272;22439;-82
2023/12/06 12:50:31;;;;;;;;;;;;;;;;;;137633;1272;22718;-85
2023/12/06 12:53:32;;;;;;;;;;;;;;;;;;137611;1272;22366;-81
2023/12/06 12:56:33;;;;;;;;;;;;;;;;;;137610;1272;22411;-80
2023/12/06 12:59:36;;;;;;;;;;;;;;;;;;137358;1272;24195;-81
2023/12/06 13:02:37;;;;;;;;;;;;;;;;;;137534;1262;22534;-80
2023/12/06 13:05:38;;;;;;;;;;;;;;;;;;137406;1272;22496;-81
2023/12/06 13:08:39;;;;;;;;;;;;;;;;;;137607;1272;23182;-80
2023/12/06 13:11:41;;;;;;;;;;;;;;;;;;137560;1272;22350;-80
2023/12/06 13:14:42;;;;;;;;;;;;;;;;;;137544;1272;22331;-80
2023/12/06 13:17:43;;;;;;;;;;;;;;;;;;137551;1272;22342;-80
2023/12/06 13:20:44;;;;;;;;;;;;;;;;;;137563;1272;22875;-80
2023/12/06 13:23:45;;;;;;;;;;;;;;;;;;137553;1272;22494;-80
2023/12/06 13:26:46;;;;;;;;;;;;;;;;;;137572;1272;23395;-79
2023/12/06 13:29:47;;;;;;;;;;;;;;;;;;137579;1272;22317;-79
2023/12/06 13:32:48;;;;;;;;;;;;;;;;;;137605;1272;22714;-79
2023/12/06 13:35:50;;;;;;;;;;;;;;;;;;137591;1272;22993;-80
2023/12/06 13:38:51;;;;;;;;;;;;;;;;;;137574;1272;22467;-80
2023/12/06 13:41:52;;;;;;;;;;;;;;;;;;137599;1272;22303;-78
2023/12/06 13:44:53;;;;;;;;;;;;;;;;;;137567;1272;22820;-81
2023/12/06 13:47:54;;;;;;;;;;;;;;;;;;137624;1272;22305;-83
2023/12/06 13:50:55;;;;;;;;;;;;;;;;;;137604;1272;22395;-85
2023/12/06 13:53:57;;;;;;;;;;;;;;;;;;137590;1272;22267;-84
2023/12/06 13:56:58;;;;;;;;;;;;;;;;;;137586;1272;22286;-84
2023/12/06 13:59:59;;;;;;;;;;;;;;;;;;137585;1272;22781;-83
2023/12/06 14:03:00;;;;;;;;;;;;;;;;;;137556;1272;22334;-81
2023/12/06 14:06:02;;;;;;;;;;;;;;;;;;137554;1272;22402;-81
2023/12/06 14:09:03;;;;;;;;;;;;;;;;;;137565;1268;22336;-81
2023/12/06 14:12:05;;;;;;;;;;;;;;;;;;137572;1272;22338;-81
2023/12/06 14:15:06;;;;;;;;;;;;;;;;;;137539;1268;22291;-81
2023/12/06 14:18:08;;;;;;;;;;;;;;;;;;137542;1257;22330;-81
2023/12/06 14:21:09;;;;;;;;;;;;;;;;;;137540;1272;22798;-80
2023/12/06 14:24:10;;;;;;;;;;;;;;;;;;137506;1262;22260;-81
2023/12/06 14:27:11;;;;;;;;;;;;;;;;;;137514;1272;22329;-80
2023/12/06 14:30:13;;;;;;;;;;;;;;;;;;137525;1272;22330;-80
2023/12/06 14:33:14;;;;;;;;;;;;;;;;;;137547;1272;22280;-80
2023/12/06 14:36:15;;;;;;;;;;;;;;;;;;137509;1268;22296;-80
2023/12/06 14:39:17;;;;;;;;;;;;;;;;;;137575;1272;22325;-80
2023/12/06 14:42:18;;;;;;;;;;;;;;;;;;137582;1272;22289;-80
2023/12/06 14:45:19;;;;;;;;;;;;;;;;;;137589;1272;22332;-82
2023/12/06 14:48:20;;;;;;;;;;;;;;;;;;137631;1268;22331;-85
2023/12/06 14:51:22;;;;;;;;;;;;;;;;;;137624;1272;22865;-83
2023/12/06 14:54:23;;;;;;;;;;;;;;;;;;137660;1272;22342;-83
2023/12/06 14:57:24;;;;;;;;;;;;;;;;;;137613;1272;22328;-83
2023/12/06 15:00:25;;;;;;;;;;;;;;;;;;137631;1272;22382;-83
2023/12/06 15:03:27;;;;;;;;;;;;;;;;;;137586;1272;22835;-82
2023/12/06 15:06:28;;;;;;;;;;;;;;;;;;137661;1272;22266;-81
2023/12/06 15:09:29;;;;;;;;;;;;;;;;;;137643;1272;22857;-83
2023/12/06 15:12:30;;;;;;;;;;;;;;;;;;137609;1266;22351;-84
2023/12/06 15:15:31;;;;;;;;;;;;;;;;;;137574;1272;22293;-84
2023/12/06 15:18:33;;;;;;;;;;;;;;;;;;137278;1272;22603;-84
2023/12/06 15:21:34;;;;;;;;;;;;;;;;;;137646;1272;22872;-81
2023/12/06 15:24:36;;;;;;;;;;;;;;;;;;137613;1272;22352;-81
2023/12/06 15:27:37;;;;;;;;;;;;;;;;;;137362;1272;22480;-82
2023/12/06 15:30:38;;;;;;;;;;;;;;;;;;137627;1272;22781;-81
2023/12/06 15:33:39;;;;;;;;;;;;;;;;;;137621;1270;22395;-81
2023/12/06 15:36:40;;;;;;;;;;;;;;;;;;137312;1268;22502;-81
2023/12/06 15:39:41;;;;;;;;;;;;;;;;;;137157;1272;22815;-83
2023/12/06 15:42:43;;;;;;;;;;;;;;;;;;137490;1272;22547;-83
2023/12/06 15:45:44;;;;;;;;;;;;;;;;;;136999;1272;22506;-82
2023/12/06 15:48:45;;;;;;;;;;;;;;;;;;137419;1272;22529;-79
2023/12/06 15:51:46;;;;;;;;;;;;;;;;;;137668;1272;22497;-81
2023/12/06 15:54:47;;;;;;;;;;;;;;;;;;137453;1272;22508;-83
2023/12/06 15:57:48;;;;;;;;;;;;;;;;;;137716;1272;22314;-81
2023/12/06 16:00:52;;;;;;;;;;;;;;;;;;137661;1272;22277;-81
2023/12/06 16:03:53;;;;;;;;;;;;;;;;;;137634;1272;22885;-81
2023/12/06 16:06:54;;;;;;;;;;;;;;;;;;137091;1272;22500;-82
2023/12/06 16:09:55;;;;;;;;;;;;;;;;;;137672;1272;22440;-81
2023/12/06 16:12:56;;;;;;;;;;;;;;;;;;137593;1272;22488;-81
2023/12/06 16:15:57;;;;;;;;;;;;;;;;;;137270;1272;22580;-81
2023/12/06 16:19:00;;;;;;;;;;;;;;;;;;137641;1272;22335;-81
2023/12/06 16:22:01;;;;;;;;;;;;;;;;;;137584;1272;23043;-82
2023/12/06 16:25:05;;;;;;;;;;;;;;;;;;137630;1272;22341;-81
2023/12/06 16:28:07;;;;;;;;;;;;;;;;;;137631;1272;23111;-81
2023/12/06 16:31:09;;;;;;;;;;;;;;;;;;137632;1267;22397;-82
2023/12/06 16:34:10;;;;;;;;;;;;;;;;;;137211;1268;22492;-80
2023/12/06 16:37:11;;;;;;;;;;;;;;;;;;137083;1272;22535;-80
2023/12/06 16:40:12;;;;;;;;;;;;;;;;;;137213;1272;22454;-83
2023/12/06 16:43:16;;;;;;;;;;;;;;;;;;137286;1272;22524;-81
2023/12/06 16:46:17;;;;;;;;;;;;;;;;;;136860;1272;145990;-80
2023/12/06 16:49:18;;;;;;;;;;;;;;;;;;137000;1272;22514;-83
2023/12/06 16:52:19;;;;;;;;;;;;;;;;;;137497;1269;22525;-84
2023/12/06 16:55:23;;;;;;;;;;;;;;;;;;136931;1272;22515;-84
2023/12/06 16:58:24;;;;;;;;;;;;;;;;;;137005;1272;22545;-83
2023/12/06 17:01:25;;;;;;;;;;;;;;;;;;137607;1272;23051;-83
2023/12/06 17:04:26;;;;;;;;;;;;;;;;;;136874;1272;22516;-81
2023/12/06 17:07:27;;;;;;;;;;;;;;;;;;136911;1272;22568;-81
2023/12/06 17:10:31;;;;;;;;;;;;;;;;;;137339;1272;22518;-82
2023/12/06 17:13:32;;;;;;;;;;;;;;;;;;137212;1272;23649;-80
2023/12/06 17:16:34;;;;;;;;;;;;;;;;;;136948;1272;22535;-81
2023/12/06 17:19:35;;;;;;;;;;;;;;;;;;137227;1272;22537;-79
2023/12/06 17:22:37;;;;;;;;;;;;;;;;;;137302;1272;23217;-82
2023/12/06 17:25:38;;;;;;;;;;;;;;;;;;137026;1272;22551;-81
2023/12/06 17:28:39;;;;;;;;;;;;;;;;;;136953;1272;22960;-81
2023/12/06 17:31:40;;;;;;;;;;;;;;;;;;137531;1272;22504;-82
2023/12/06 17:34:41;;;;;;;;;;;;;;;;;;137016;1272;22526;-83
2023/12/06 17:37:42;;;;;;;;;;;;;;;;;;136983;1272;24224;-83
2023/12/06 17:40:44;;;;;;;;;;;;;;;;;;137559;1272;22636;-83
2023/12/06 17:43:45;;;;;;;;;;;;;;;;;;137115;1272;22529;-82
2023/12/06 17:46:47;;;;;;;;;;;;;;;;;;137010;1272;22501;-82
2023/12/06 17:49:48;;;;;;;;;;;;;;;;;;137310;1272;22534;-82
2023/12/06 17:52:49;;;;;;;;;;;;;;;;;;137316;1272;22511;-83
2023/12/06 17:55:50;;;;;;;;;;;;;;;;;;137011;1272;22660;-83
2023/12/06 17:58:52;;;;;;;;;;;;;;;;;;137153;1272;22517;-83
2023/12/06 18:01:53;;;;;;;;;;;;;;;;;;137637;1272;22526;-83
2023/12/06 18:04:54;;;;;;;;;;;;;;;;;;137040;1272;22570;-83
2023/12/06 18:07:55;;;;;;;;;;;;;;;;;;136904;1272;22811;-83
2023/12/06 18:10:57;;;;;;;;;;;;;;;;;;136808;1272;22571;-83
2023/12/06 18:13:58;;;;;;;;;;;;;;;;;;136777;1272;22525;-84
2023/12/06 18:17:00;;;;;;;;;;;;;;;;;;137318;1272;22476;-84
2023/12/06 18:20:05;;;;;;;;;;;;;;;;;;136834;1272;22527;-84
2023/12/06 18:23:07;;;;;;;;;;;;;;;;;;136827;1272;22513;-85
2023/12/06 18:26:08;;;;;;;;;;;;;;;;;;136821;1272;23066;-85
2023/12/06 18:29:10;;;;;;;;;;;;;;;;;;137341;1272;22653;-84
2023/12/06 18:32:12;;;;;;;;;;;;;;;;;;137122;1272;22509;-86
2023/12/06 18:35:13;;;;;;;;;;;;;;;;;;137448;1272;22594;-83
2023/12/06 18:38:14;;;;;;;;;;;;;;;;;;137480;1272;22535;-80
2023/12/06 18:41:15;;;;;;;;;;;;;;;;;;137057;1272;22595;-79
2023/12/06 18:44:17;;;;;;;;;;;;;;;;;;137598;1272;22547;-85
2023/12/06 18:47:21;;;;;;;;;;;;;;;;;;137308;1272;22690;-85
2023/12/06 18:50:22;;;;;;;;;;;;;;;;;;137354;1272;22496;-84
2023/12/06 18:53:23;;;;;;;;;;;;;;;;;;137042;1272;23168;-84
2023/12/06 18:56:24;;;;;;;;;;;;;;;;;;137196;1272;22549;-85
2023/12/06 18:59:25;;;;;;;;;;;;;;;;;;137459;1272;22990;-85
2023/12/06 19:02:27;;;;;;;;;;;;;;;;;;136923;1272;22545;-84
2023/12/06 19:05:28;;;;;;;;;;;;;;;;;;136944;1272;22546;-84
2023/12/06 19:08:30;;;;;;;;;;;;;;;;;;137545;1272;22582;-85
2023/12/06 19:11:31;;;;;;;;;;;;;;;;;;136868;1272;22884;-85
2023/12/06 19:14:35;;;;;;;;;;;;;;;;;;136983;1272;22637;-84
2023/12/06 19:17:36;;;;;;;;;;;;;;;;;;137394;1272;22499;-85
2023/12/06 19:20:37;;;;;;;;;;;;;;;;;;136765;1272;22663;-84
2023/12/06 19:23:41;;;;;;;;;;;;;;;;;;136911;1272;24228;-84
2023/12/06 19:26:43;;;;;;;;;;;;;;;;;;137463;1272;22545;-84
2023/12/06 19:29:44;;;;;;;;;;;;;;;;;;137105;1272;22493;-84
2023/12/06 19:32:45;;;;;;;;;;;;;;;;;;136953;1272;22509;-83
2023/12/06 19:35:52;;;;;;;;;;;;;;;;;;136890;1272;22625;-84
2023/12/06 19:38:53;;;;;;;;;;;;;;;;;;136846;1272;22539;-82
2023/12/06 19:41:55;;;;;;;;;;;;;;;;;;136870;1272;23092;-83
2023/12/06 19:44:56;;;;;;;;;;;;;;;;;;137339;1272;22476;-83
2023/12/06 19:47:58;;;;;;;;;;;;;;;;;;136988;1272;22947;-84
2023/12/06 19:50:59;;;;;;;;;;;;;;;;;;137025;1272;22875;-84
2023/12/06 19:54:00;;;;;;;;;;;;;;;;;;137473;1272;22518;-84
2023/12/06 19:57:02;;;;;;;;;;;;;;;;;;137086;1272;22594;-83
2023/12/06 20:00:09;;;;;;;;;;;;;;;;;;136392;1270;25855;-84
2023/12/06 20:03:15;;;;;;;;;;;;;;;;;;136526;1272;25194;-84
2023/12/06 20:06:17;;;;;;;;;;;;;;;;;;136180;1272;22502;-84
2023/12/06 20:09:21;;;;;;;;;;;;;;;;;;136476;1272;22512;-84
2023/12/06 20:12:26;;;;;;;;;;;;;;;;;;136148;1272;22686;-84
2023/12/06 20:15:30;;;;;;;;;;;;;;;;;;136439;1272;23071;-84
2023/12/06 20:18:31;;;;;;;;;;;;;;;;;;136625;1272;22539;-85